Time;durP1;ratioP1;P1;durP2;ratioP2;P2;SDS_P1;SDS_P2;PMS_P1;PMS_P2;Temp;Humidity;BMP_temperature;BMP_pressure;BME280_temperature;BME280_humidity;BME280_pressure;Samples;Min_cycle;Max_cycle;Signal;HPM_P1;HPM_P2
2023/04/10 00:02:23;;;;;;;;;;;;;;;2.62;75.04;102395.27;109055;1257;124510;-79
2023/04/10 00:04:50;;;;;;;;;;;;;;;2.59;75.09;102391.73;109236;1254;73372;-79
2023/04/10 00:07:17;;;;;;;;;;;;;;;2.57;75.21;102390.84;108989;1254;124777;-79
2023/04/10 00:09:44;;;;;;;;;;;;;;;2.55;75.19;102389.84;108844;1259;73227;-79
2023/04/10 00:12:11;;;;;;;;;;;;;;;2.53;75.32;102388.96;108851;1254;59557;-79
2023/04/10 00:14:38;;;;;;;;;;;;;;;2.51;75.30;102389.68;108831;1253;123816;-79
2023/04/10 00:17:05;;;;;;;;;;;;;;;2.49;75.39;102385.52;109154;1254;75209;-79
2023/04/10 00:19:32;;;;;;;;;;;;;;;2.47;75.52;102387.10;109021;1254;124101;-79
2023/04/10 00:21:59;;;;;;;;;;;;;;;2.44;75.52;102387.41;108925;1253;71593;-79
2023/04/10 00:24:26;;;;;;;;;;;;;;;2.42;75.40;102385.48;109170;1253;124808;-79
2023/04/10 00:26:53;;;;;;;;;;;;;;;2.40;75.74;102381.51;109262;1254;60429;-80
2023/04/10 00:29:20;;;;;;;;;;;;;;;2.40;75.59;102383.59;109183;1254;73811;-80
2023/04/10 00:31:47;;;;;;;;;;;;;;;2.39;75.79;102380.91;108912;1254;124357;-79
2023/04/10 00:34:15;;;;;;;;;;;;;;;2.38;75.83;102377.20;109191;1253;72939;-79
2023/04/10 00:36:42;;;;;;;;;;;;;;;2.38;75.89;102375.95;108902;1254;125634;-79
2023/04/10 00:39:09;;;;;;;;;;;;;;;2.39;75.79;102376.01;109207;1254;59278;-79
2023/04/10 00:41:35;;;;;;;;;;;;;;;2.40;75.91;102375.04;109203;1254;74497;-79
2023/04/10 00:44:02;;;;;;;;;;;;;;;2.40;75.85;102379.09;109140;1253;125369;-79
2023/04/10 00:46:30;;;;;;;;;;;;;;;2.42;76.14;102380.58;109019;1254;73200;-79
2023/04/10 00:48:57;;;;;;;;;;;;;;;2.43;76.11;102379.14;108900;1254;125240;-79
2023/04/10 00:51:25;;;;;;;;;;;;;;;2.44;76.10;102380.97;109049;1253;61291;-79
2023/04/10 00:53:53;;;;;;;;;;;;;;;2.44;76.01;102379.95;109298;1254;76072;-79
2023/04/10 00:56:20;;;;;;;;;;;;;;;2.45;76.02;102382.77;107937;1254;124418;-79
2023/04/10 00:58:47;;;;;;;;;;;;;;;2.47;76.10;102385.69;107747;1254;73308;-79
2023/04/10 01:01:14;;;;;;;;;;;;;;;2.48;76.07;102383.58;107810;1255;124458;-78
2023/04/10 01:03:41;;;;;;;;;;;;;;;2.51;76.01;102380.71;108163;1254;59949;-78
2023/04/10 01:06:25;;;;;;;;;;;;;;;2.55;76.05;102379.95;107880;1254;73408;-79
2023/04/10 01:08:54;;;;;;;;;;;;;;;2.56;75.89;102376.75;107723;1254;67673;-79
2023/04/10 01:11:23;;;;;;;;;;;;;;;2.54;76.04;102379.55;107997;1254;71154;-79
2023/04/10 01:13:54;;;;;;;;;;;;;;;2.53;75.84;102385.01;108789;1254;125400;-78
2023/04/10 01:16:24;;;;;;;;;;;;;;;2.52;76.02;102380.58;109120;1254;60139;-78
2023/04/10 01:19:05;;;;;;;;;;;;;;;2.50;76.10;102382.39;108882;1254;124314;-78
2023/04/10 01:21:33;;;;;;;;;;;;;;;2.49;76.08;102375.52;109026;1256;67140;-78
2023/04/10 01:24:00;;;;;;;;;;;;;;;2.49;76.04;102379.45;108993;1254;73413;-79
2023/04/10 01:26:45;;;;;;;;;;;;;;;2.49;76.08;102379.29;108841;1254;124616;-79
2023/04/10 01:29:33;;;;;;;;;;;;;;;2.48;76.04;102380.63;109175;1254;60177;-79
2023/04/10 01:32:20;;;;;;;;;;;;;;;2.47;75.92;102373.40;109130;1256;123870;-79
2023/04/10 01:34:50;;;;;;;;;;;;;;;2.44;76.04;102375.59;108986;1259;67148;-79
2023/04/10 01:37:21;;;;;;;;;;;;;;;2.40;75.90;102376.48;108865;1259;123671;-79
2023/04/10 01:39:49;;;;;;;;;;;;;;;2.37;76.06;102376.06;109059;1253;59179;-78
2023/04/10 01:42:16;;;;;;;;;;;;;;;2.34;76.14;102377.17;109024;1254;60066;-79
2023/04/10 01:44:43;;;;;;;;;;;;;;;2.32;76.09;102380.70;108866;1253;124100;-78
2023/04/10 01:47:10;;;;;;;;;;;;;;;2.31;76.04;102378.47;108965;1254;65748;-79
2023/04/10 01:49:41;;;;;;;;;;;;;;;2.29;75.96;102377.99;108865;1254;123644;-78
2023/04/10 01:52:08;;;;;;;;;;;;;;;2.26;76.06;102377.54;109184;1254;59390;-78
2023/04/10 01:54:35;;;;;;;;;;;;;;;2.22;76.07;102376.86;108924;1253;124653;-79
2023/04/10 01:57:02;;;;;;;;;;;;;;;2.19;76.08;102377.59;109229;1254;75280;-79
2023/04/10 01:59:30;;;;;;;;;;;;;;;2.16;76.02;102376.31;109178;1254;67420;-79
2023/04/10 02:01:57;;;;;;;;;;;;;;;2.13;76.30;102374.92;109147;1254;123674;-79
2023/04/10 02:04:27;;;;;;;;;;;;;;;2.11;76.20;102372.85;108996;1255;59449;-79
2023/04/10 02:07:08;;;;;;;;;;;;;;;2.08;76.47;102370.82;109040;1259;125053;-79
2023/04/10 02:09:47;;;;;;;;;;;;;;;2.05;76.37;102369.88;109011;1256;73380;-78
2023/04/10 02:12:52;;;;;;;;;;;;;;;2.03;76.43;102367.96;109012;1254;64734;-78
2023/04/10 02:15:37;;;;;;;;;;;;;;;2.02;76.64;102369.09;108642;1260;72464;-78
2023/04/10 02:18:05;;;;;;;;;;;;;;;2.02;76.82;102366.86;108898;1254;59347;-78
2023/04/10 02:20:32;;;;;;;;;;;;;;;2.02;76.76;102368.96;109119;1254;125507;-79
2023/04/10 02:23:02;;;;;;;;;;;;;;;2.02;76.80;102367.41;109009;1259;73043;-79
2023/04/10 02:25:32;;;;;;;;;;;;;;;2.03;76.81;102365.77;109109;1254;124614;-80
2023/04/10 02:28:03;;;;;;;;;;;;;;;2.05;76.81;102367.44;109121;1254;71393;-79
2023/04/10 02:30:30;;;;;;;;;;;;;;;2.06;76.81;102371.02;108855;1254;125643;-79
2023/04/10 02:32:57;;;;;;;;;;;;;;;2.07;76.73;102368.86;109261;1254;60115;-78
2023/04/10 02:35:25;;;;;;;;;;;;;;;2.10;76.90;102372.35;109206;1254;74689;-79
2023/04/10 02:37:52;;;;;;;;;;;;;;;2.12;76.84;102375.13;108850;1254;125745;-79
2023/04/10 02:40:19;;;;;;;;;;;;;;;2.14;76.86;102376.40;109141;1259;73550;-79
2023/04/10 02:42:46;;;;;;;;;;;;;;;2.16;76.78;102376.70;108885;1254;125653;-79
2023/04/10 02:45:13;;;;;;;;;;;;;;;2.18;76.75;102380.30;109180;1258;60663;-78
2023/04/10 02:47:40;;;;;;;;;;;;;;;2.18;76.57;102379.44;109011;1254;74708;-79
2023/04/10 02:50:07;;;;;;;;;;;;;;;2.19;76.69;102383.70;109124;1254;125523;-79
2023/04/10 02:52:34;;;;;;;;;;;;;;;2.20;76.82;102381.88;109130;1254;72835;-79
2023/04/10 02:55:01;;;;;;;;;;;;;;;2.20;76.62;102378.42;108847;1254;124858;-79
2023/04/10 02:57:28;;;;;;;;;;;;;;;2.19;76.45;102379.92;109177;1254;59591;-79
2023/04/10 02:59:56;;;;;;;;;;;;;;;2.16;76.58;102376.89;108982;1253;74878;-79
2023/04/10 03:02:23;;;;;;;;;;;;;;;2.15;76.37;102382.52;108875;1254;125234;-79
2023/04/10 03:04:52;;;;;;;;;;;;;;;2.14;76.54;102376.84;109204;1254;72944;-79
2023/04/10 03:07:19;;;;;;;;;;;;;;;2.13;76.51;102376.52;108900;1254;126052;-79
2023/04/10 03:09:46;;;;;;;;;;;;;;;2.13;76.50;102375.80;109096;1255;59988;-79
2023/04/10 03:12:13;;;;;;;;;;;;;;;2.12;76.55;102376.58;108987;1254;74533;-78
2023/04/10 03:14:40;;;;;;;;;;;;;;;2.12;76.66;102375.46;109132;1253;124304;-79
2023/04/10 03:17:07;;;;;;;;;;;;;;;2.10;76.48;102379.13;109247;1254;71519;-78
2023/04/10 03:19:34;;;;;;;;;;;;;;;2.08;76.34;102376.40;108933;1257;124119;-78
2023/04/10 03:22:01;;;;;;;;;;;;;;;2.06;76.51;102372.79;109015;1254;61005;-79
2023/04/10 03:24:28;;;;;;;;;;;;;;;2.05;76.56;102374.54;109251;1253;74933;-79
2023/04/10 03:26:55;;;;;;;;;;;;;;;2.01;76.47;102373.66;109004;1254;70750;-78
2023/04/10 03:29:22;;;;;;;;;;;;;;;1.99;76.40;102375.83;109011;1254;71459;-78
2023/04/10 03:31:49;;;;;;;;;;;;;;;1.96;76.49;102378.49;109096;1259;123815;-78
2023/04/10 03:34:17;;;;;;;;;;;;;;;1.93;76.59;102380.63;109229;1253;59871;-79
2023/04/10 03:36:45;;;;;;;;;;;;;;;1.91;76.66;102381.29;108950;1254;123843;-79
2023/04/10 03:39:12;;;;;;;;;;;;;;;1.88;76.66;102379.02;108983;1254;67555;-79
2023/04/10 03:41:39;;;;;;;;;;;;;;;1.88;76.64;102381.91;109044;1254;72439;-79
2023/04/10 03:44:06;;;;;;;;;;;;;;;1.86;76.76;102382.63;109145;1258;123910;-79
2023/04/10 03:46:33;;;;;;;;;;;;;;;1.86;76.81;102382.91;109242;1254;59380;-79
2023/04/10 03:49:00;;;;;;;;;;;;;;;1.83;76.72;102381.67;107848;1254;124342;-79
2023/04/10 03:51:28;;;;;;;;;;;;;;;1.82;76.73;102384.73;107661;1253;67712;-78
2023/04/10 03:53:55;;;;;;;;;;;;;;;1.81;76.79;102383.55;107725;1254;71242;-79
2023/04/10 03:56:22;;;;;;;;;;;;;;;1.80;76.84;102378.62;107730;1254;123759;-79
2023/04/10 03:58:49;;;;;;;;;;;;;;;1.80;76.76;102382.44;107416;1258;61194;-79
2023/04/10 04:01:16;;;;;;;;;;;;;;;1.80;76.98;102384.73;107046;1254;124221;-79
2023/04/10 04:03:43;;;;;;;;;;;;;;;1.82;77.04;102387.15;107927;1254;66056;-78
2023/04/10 04:06:10;;;;;;;;;;;;;;;1.84;77.06;102383.46;108165;1254;71456;-78
2023/04/10 04:08:37;;;;;;;;;;;;;;;1.94;77.38;102386.42;108997;1258;123993;-78
2023/04/10 04:11:05;;;;;;;;;;;;;;;2.12;77.63;102385.70;109228;1258;60330;-78
2023/04/10 04:13:31;;;;;;;;;;;;;;;2.42;77.89;102388.40;108818;1254;124604;-78
2023/04/10 04:15:58;;;;;;;;;;;;;;;2.68;77.59;102387.83;109195;1254;66775;-78
2023/04/10 04:18:25;;;;;;;;;;;;;;;2.73;77.05;102390.85;109213;1259;71437;-78
2023/04/10 04:20:52;;;;;;;;;;;;;;;2.74;76.52;102394.70;108877;1254;124430;-78
2023/04/10 04:23:19;;;;;;;;;;;;;;;2.75;76.60;102394.45;109224;1254;59053;-78
2023/04/10 04:25:46;;;;;;;;;;;;;;;2.79;76.51;102398.72;109021;1258;124524;-78
2023/04/10 04:28:14;;;;;;;;;;;;;;;2.83;76.37;102397.38;109146;1254;67066;-78
2023/04/10 04:30:41;;;;;;;;;;;;;;;2.94;76.66;102400.02;108884;1254;125061;-78
2023/04/10 04:33:08;;;;;;;;;;;;;;;3.54;77.64;102399.42;108993;1256;59352;-78
2023/04/10 04:35:35;;;;;;;;;;;;;;;4.75;78.60;102394.86;109197;1258;59796;-79
2023/04/10 04:38:02;;;;;;;;;;;;;;;5.98;77.90;102396.43;109092;1254;124932;-78
2023/04/10 04:40:29;;;;;;;;;;;;;;;7.05;76.97;102394.79;109115;1259;66447;-79
2023/04/10 04:42:56;;;;;;;;;;;;;;;8.16;76.21;102392.92;109058;1259;125988;-79
2023/04/10 04:45:24;;;;;;;;;;;;;;;9.26;75.15;102393.45;109289;1253;59284;-78
2023/04/10 04:47:50;;;;;;;;;;;;;;;10.31;73.73;102389.32;109206;1254;60662;-79
2023/04/10 04:50:17;;;;;;;;;;;;;;;11.15;72.29;102389.55;109143;1254;124961;-79
2023/04/10 04:52:44;;;;;;;;;;;;;;;12.04;71.21;102384.58;109219;1254;64745;-79
2023/04/10 04:55:14;;;;;;;;;;;;;;;12.80;69.77;102384.92;109081;1255;125124;-79
2023/04/10 04:57:41;;;;;;;;;;;;;;;13.54;68.92;102387.89;109211;1254;59107;-79
2023/04/10 05:00:08;;;;;;;;;;;;;;;14.27;67.75;102388.72;109176;1255;59825;-79
2023/04/10 05:02:35;;;;;;;;;;;;;;;14.87;66.39;102391.36;108530;1258;124789;-78
2023/04/10 05:05:02;;;;;;;;;;;;;;;15.39;65.38;102387.73;107775;1258;67033;-78
2023/04/10 05:07:30;;;;;;;;;;;;;;;15.81;64.07;102393.29;107571;1254;124671;-78
2023/04/10 05:09:57;;;;;;;;;;;;;;;15.46;62.15;102391.86;107752;1260;61592;-78
2023/04/10 05:12:24;;;;;;;;;;;;;;;14.75;60.40;102394.81;107842;1259;61206;-78
2023/04/10 05:14:51;;;;;;;;;;;;;;;13.81;59.52;102396.72;107714;1254;124245;-78
2023/04/10 05:17:18;;;;;;;;;;;;;;;12.83;59.07;102398.42;107879;1254;67065;-78
2023/04/10 05:19:45;;;;;;;;;;;;;;;12.02;59.23;102401.41;107592;1259;125429;-78
2023/04/10 05:22:11;;;;;;;;;;;;;;;11.29;59.47;102406.05;108904;1255;60074;-78
2023/04/10 05:24:40;;;;;;;;;;;;;;;10.63;59.75;102408.38;108910;1254;125145;-79
2023/04/10 05:27:07;;;;;;;;;;;;;;;10.09;60.36;102406.95;109181;1257;73340;-80
2023/04/10 05:29:34;;;;;;;;;;;;;;;9.71;60.73;102405.27;108982;1254;65789;-80
2023/04/10 05:32:01;;;;;;;;;;;;;;;9.42;61.10;102409.23;109054;1254;124762;-81
2023/04/10 05:34:28;;;;;;;;;;;;;;;9.18;61.34;102409.09;109064;1254;59902;-81
2023/04/10 05:36:55;;;;;;;;;;;;;;;8.95;61.57;102408.66;108991;1254;124967;-80
2023/04/10 05:39:22;;;;;;;;;;;;;;;8.77;61.87;102408.66;109241;1254;73669;-81
2023/04/10 05:41:49;;;;;;;;;;;;;;;8.64;62.16;102412.95;109230;1253;68391;-80
2023/04/10 05:44:16;;;;;;;;;;;;;;;8.51;62.29;102410.95;109134;1255;123873;-80
2023/04/10 05:46:46;;;;;;;;;;;;;;;8.45;62.69;102410.80;109259;1257;58985;-80
2023/04/10 05:49:13;;;;;;;;;;;;;;;8.41;62.82;102411.41;109193;1255;124055;-80
2023/04/10 05:51:40;;;;;;;;;;;;;;;8.33;62.96;102415.46;109192;1254;74666;-80
2023/04/10 05:54:07;;;;;;;;;;;;;;;8.27;63.15;102417.86;109208;1254;67077;-80
2023/04/10 05:56:34;;;;;;;;;;;;;;;8.21;63.26;102416.98;108367;1257;124056;-80
2023/04/10 05:59:02;;;;;;;;;;;;;;;8.15;63.43;102419.59;108042;1255;59985;-80
2023/04/10 06:01:29;;;;;;;;;;;;;;;8.09;63.48;102422.38;107571;1254;124896;-80
2023/04/10 06:03:56;;;;;;;;;;;;;;;8.01;63.68;102419.75;107726;1256;74082;-80
2023/04/10 06:06:24;;;;;;;;;;;;;;;7.96;63.83;102418.59;107942;1258;67088;-80
2023/04/10 06:08:51;;;;;;;;;;;;;;;7.91;63.97;102424.73;107751;1259;124514;-80
2023/04/10 06:11:20;;;;;;;;;;;;;;;7.88;64.09;102424.08;107856;1257;61173;-80
2023/04/10 06:13:48;;;;;;;;;;;;;;;7.84;64.11;102427.64;107662;1260;124079;-78
2023/04/10 06:16:15;;;;;;;;;;;;;;;7.76;64.15;102425.59;107630;1259;75078;-78
2023/04/10 06:18:42;;;;;;;;;;;;;;;7.72;64.31;102422.86;107929;1254;123925;-79
2023/04/10 06:21:09;;;;;;;;;;;;;;;7.70;64.48;102425.74;107684;1260;72711;-78
2023/04/10 06:23:36;;;;;;;;;;;;;;;7.71;64.62;102428.58;107718;1255;60037;-78
2023/04/10 06:26:03;;;;;;;;;;;;;;;7.72;64.80;102427.41;107707;1255;124171;-79
2023/04/10 06:28:31;;;;;;;;;;;;;;;7.73;64.81;102425.23;107705;1256;74429;-78
2023/04/10 06:31:01;;;;;;;;;;;;;;;7.74;64.85;102425.30;107770;1258;124347;-78
2023/04/10 06:33:29;;;;;;;;;;;;;;;7.75;64.72;102427.59;108285;1254;72523;-78
2023/04/10 06:35:56;;;;;;;;;;;;;;;7.71;64.68;102430.16;108033;1254;59370;-79
2023/04/10 06:38:23;;;;;;;;;;;;;;;7.74;64.78;102427.38;108169;1254;124793;-78
2023/04/10 06:40:50;;;;;;;;;;;;;;;7.78;64.85;102427.45;107909;1254;74655;-78
2023/04/10 06:43:17;;;;;;;;;;;;;;;7.81;64.73;102426.94;107606;1259;124371;-80
2023/04/10 06:45:44;;;;;;;;;;;;;;;7.85;64.70;102423.34;107861;1257;70999;-79
2023/04/10 06:48:11;;;;;;;;;;;;;;;7.88;64.56;102424.73;107540;1254;61260;-78
2023/04/10 06:50:38;;;;;;;;;;;;;;;7.89;64.50;102426.59;107574;1255;123944;-78
2023/04/10 06:53:05;;;;;;;;;;;;;;;7.91;64.58;102428.11;109019;1257;73880;-79
2023/04/10 06:55:32;;;;;;;;;;;;;;;7.92;64.78;102426.60;108810;1255;124407;-80
2023/04/10 06:57:59;;;;;;;;;;;;;;;7.95;64.99;102424.86;109212;1254;71399;-80
2023/04/10 07:00:26;;;;;;;;;;;;;;;8.02;65.01;102424.58;109238;1254;59436;-80
2023/04/10 07:02:53;;;;;;;;;;;;;;;8.07;64.98;102423.27;109131;1254;124362;-80
2023/04/10 07:05:21;;;;;;;;;;;;;;;8.08;64.89;102429.34;109022;1255;74579;-80
2023/04/10 07:07:49;;;;;;;;;;;;;;;8.10;64.89;102429.30;108913;1254;124568;-78
2023/04/10 07:10:16;;;;;;;;;;;;;;;8.11;64.67;102430.00;108911;1254;72943;-78
2023/04/10 07:12:43;;;;;;;;;;;;;;;8.11;64.68;102428.08;108906;1260;124114;-78
2023/04/10 07:15:11;;;;;;;;;;;;;;;8.12;64.63;102425.38;108982;1254;60664;-78
2023/04/10 07:17:38;;;;;;;;;;;;;;;8.12;64.56;102423.65;108945;1254;73401;-78
2023/04/10 07:20:05;;;;;;;;;;;;;;;8.18;64.67;102423.46;109052;1253;124098;-78
2023/04/10 07:22:32;;;;;;;;;;;;;;;8.24;64.66;102424.17;109007;1254;72695;-78
2023/04/10 07:24:59;;;;;;;;;;;;;;;8.28;64.37;102428.61;108793;1254;124079;-78
2023/04/10 07:27:26;;;;;;;;;;;;;;;8.25;64.14;102424.27;109160;1254;60503;-79
2023/04/10 07:29:54;;;;;;;;;;;;;;;8.28;64.07;102421.61;109240;1254;74699;-78
2023/04/10 07:32:22;;;;;;;;;;;;;;;8.30;64.10;102422.79;108916;1254;124651;-78
2023/04/10 07:34:49;;;;;;;;;;;;;;;8.30;64.00;102423.47;109134;1254;72540;-78
2023/04/10 07:37:16;;;;;;;;;;;;;;;8.30;63.94;102421.23;108935;1253;124000;-78
2023/04/10 07:39:44;;;;;;;;;;;;;;;8.33;63.98;102421.59;109078;1254;59242;-81
2023/04/10 07:42:11;;;;;;;;;;;;;;;8.35;63.87;102422.27;109228;1254;74658;-81
2023/04/10 07:44:38;;;;;;;;;;;;;;;8.39;63.73;102426.83;109146;1254;124204;-79
2023/04/10 07:47:05;;;;;;;;;;;;;;;8.42;63.62;102425.30;108915;1254;71175;-80
2023/04/10 07:49:32;;;;;;;;;;;;;;;8.46;63.64;102426.79;108913;1254;124648;-80
2023/04/10 07:52:00;;;;;;;;;;;;;;;8.50;63.56;102425.29;109261;1253;60679;-80
2023/04/10 07:54:29;;;;;;;;;;;;;;;8.55;63.46;102424.89;109058;1254;74883;-80
2023/04/10 07:57:00;;;;;;;;;;;;;;;8.61;63.34;102419.44;108478;1257;68633;-80
2023/04/10 07:59:27;;;;;;;;;;;;;;;8.68;63.58;102420.54;107606;1254;72608;-78
2023/04/10 08:01:56;;;;;;;;;;;;;;;8.76;63.66;102422.62;107447;1254;124074;-78
2023/04/10 08:04:23;;;;;;;;;;;;;;;8.83;63.48;102415.47;107282;1254;61509;-78
2023/04/10 08:06:50;;;;;;;;;;;;;;;8.89;63.41;102408.51;107268;1254;124241;-78
2023/04/10 08:09:17;;;;;;;;;;;;;;;8.93;63.10;102404.16;107642;1254;67320;-78
2023/04/10 08:11:44;;;;;;;;;;;;;;;8.94;63.10;102403.36;107970;1254;71740;-78
2023/04/10 08:14:12;;;;;;;;;;;;;;;8.99;63.17;102403.95;109196;1254;124254;-78
2023/04/10 08:16:39;;;;;;;;;;;;;;;9.06;63.28;102405.80;109308;1253;60508;-78
2023/04/10 08:19:06;;;;;;;;;;;;;;;9.11;63.23;102403.99;109149;1254;124501;-77
2023/04/10 08:21:33;;;;;;;;;;;;;;;9.17;63.41;102397.13;109227;1254;66932;-78
2023/04/10 08:24:01;;;;;;;;;;;;;;;9.26;63.49;102396.39;109075;1254;72416;-78
2023/04/10 08:26:28;;;;;;;;;;;;;;;9.35;63.31;102393.58;108895;1254;125030;-78
2023/04/10 08:28:56;;;;;;;;;;;;;;;9.39;63.20;102396.41;109047;1254;60387;-78
2023/04/10 08:31:23;;;;;;;;;;;;;;;9.44;63.43;102399.55;108996;1254;126598;-78
2023/04/10 08:33:50;;;;;;;;;;;;;;;9.53;63.79;102396.16;108928;1254;67105;-79
2023/04/10 08:36:17;;;;;;;;;;;;;;;9.61;63.88;102395.38;108996;1254;73203;-79
2023/04/10 08:38:50;;;;;;;;;;;;;;;9.67;63.81;102394.50;108868;1254;125757;-80
2023/04/10 08:41:18;;;;;;;;;;;;;;;9.74;63.78;102398.38;108904;1254;59368;-78
2023/04/10 08:43:45;;;;;;;;;;;;;;;9.80;63.44;102393.64;108844;1254;124510;-81
2023/04/10 08:46:13;;;;;;;;;;;;;;;9.80;62.94;102393.98;109060;1254;66437;-80
2023/04/10 08:48:52;;;;;;;;;;;;;;;9.80;62.80;102391.36;107378;1254;124669;-80
2023/04/10 08:51:19;;;;;;;;;;;;;;;9.87;62.79;102394.54;108018;1254;61760;-79
2023/04/10 08:53:49;;;;;;;;;;;;;;;9.96;62.64;102388.89;107927;1253;59976;-79
2023/04/10 08:56:16;;;;;;;;;;;;;;;10.02;62.42;102386.89;107670;1254;124507;-79
2023/04/10 08:58:44;;;;;;;;;;;;;;;10.07;62.22;102388.05;107638;1254;65894;-79
2023/04/10 09:01:11;;;;;;;;;;;;;;;10.09;62.15;102389.06;108719;1254;124566;-79
2023/04/10 09:03:38;;;;;;;;;;;;;;;10.14;62.16;102384.41;109180;1254;59237;-81
2023/04/10 09:06:05;;;;;;;;;;;;;;;10.21;62.28;102383.71;109062;1254;59359;-80
2023/04/10 09:08:33;;;;;;;;;;;;;;;10.25;62.33;102380.45;108793;1254;124126;-81
2023/04/10 09:11:00;;;;;;;;;;;;;;;10.31;62.40;102376.02;108972;1258;65796;-82
2023/04/10 09:13:53;;;;;;;;;;;;;;;10.39;62.57;102376.24;108948;1254;124594;-82
2023/04/10 09:16:20;;;;;;;;;;;;;;;10.49;62.41;102376.63;109019;1254;59760;-81
2023/04/10 09:18:50;;;;;;;;;;;;;;;10.56;62.48;102369.96;108745;1254;124999;-79
2023/04/10 09:21:17;;;;;;;;;;;;;;;10.63;62.50;102363.84;108946;1254;73571;-79
2023/04/10 09:23:45;;;;;;;;;;;;;;;10.70;62.49;102360.28;108932;1260;65778;-79
2023/04/10 09:26:28;;;;;;;;;;;;;;;10.77;62.39;102358.84;108769;1254;125209;-79
2023/04/10 09:28:59;;;;;;;;;;;;;;;10.88;62.21;102357.48;108789;1256;58929;-80
2023/04/10 09:31:30;;;;;;;;;;;;;;;10.96;61.96;102353.49;109006;1254;124877;-79
2023/04/10 09:34:06;;;;;;;;;;;;;;;11.00;61.59;102350.33;108910;1255;72887;-80
2023/04/10 09:36:34;;;;;;;;;;;;;;;11.02;61.27;102355.55;108390;1254;67111;-80
2023/04/10 09:39:03;;;;;;;;;;;;;;;11.04;61.22;102356.55;107868;1254;72904;-81
2023/04/10 09:41:32;;;;;;;;;;;;;;;11.07;60.98;102351.41;107552;1254;270694;-81
2023/04/10 09:44:06;;;;;;;;;;;;;;;11.08;60.67;102351.98;107431;1254;124413;-81
2023/04/10 09:46:34;;;;;;;;;;;;;;;11.11;60.71;102349.98;107537;1254;72835;-81
2023/04/10 09:49:03;;;;;;;;;;;;;;;11.18;60.53;102345.20;107642;1256;125113;-81
2023/04/10 09:51:31;;;;;;;;;;;;;;;11.25;60.17;102340.30;107828;1254;72926;-81
2023/04/10 09:53:58;;;;;;;;;;;;;;;11.30;59.68;102336.85;107706;1255;59995;-81
2023/04/10 09:56:26;;;;;;;;;;;;;;;11.33;59.53;102334.34;107700;1254;124382;-81
2023/04/10 09:58:55;;;;;;;;;;;;;;;11.37;59.38;102334.17;107427;1254;73388;-81
2023/04/10 10:01:23;;;;;;;;;;;;;;;11.39;59.46;102335.70;108558;1254;124830;-81
2023/04/10 10:03:50;;;;;;;;;;;;;;;11.45;59.48;102329.27;107183;1262;71231;-81
2023/04/10 10:06:17;;;;;;;;;;;;;;;11.49;59.48;102327.91;107445;1257;61273;-81
2023/04/10 10:08:44;;;;;;;;;;;;;;;11.53;59.16;102326.83;107727;1259;124223;-80
2023/04/10 10:11:12;;;;;;;;;;;;;;;11.55;58.82;102324.82;107757;1254;74642;-80
2023/04/10 10:13:48;;;;;;;;;;;;;;;11.57;58.71;102321.21;107495;1254;124773;-80
2023/04/10 10:16:19;;;;;;;;;;;;;;;11.60;58.52;102312.73;107517;1254;72109;-80
2023/04/10 10:18:47;;;;;;;;;;;;;;;11.65;58.46;102309.84;107324;1254;124555;-80
2023/04/10 10:21:14;;;;;;;;;;;;;;;11.72;58.21;102311.52;107343;1255;61064;-81
2023/04/10 10:23:43;;;;;;;;;;;;;;;11.77;58.22;102309.11;107483;1254;75194;-81
2023/04/10 10:26:10;;;;;;;;;;;;;;;11.82;57.82;102299.50;107498;1257;125108;-81
2023/04/10 10:28:38;;;;;;;;;;;;;;;11.88;57.71;102296.60;107919;1258;72668;-81
2023/04/10 10:31:05;;;;;;;;;;;;;;;11.93;57.36;102291.20;107636;1256;125102;-82
2023/04/10 10:33:34;;;;;;;;;;;;;;;11.96;57.12;102289.23;107937;1254;59904;-81
2023/04/10 10:36:02;;;;;;;;;;;;;;;11.97;57.00;102285.41;109021;1253;73122;-81
2023/04/10 10:38:29;;;;;;;;;;;;;;;12.00;56.84;102280.44;108791;1259;124492;-82
2023/04/10 10:40:56;;;;;;;;;;;;;;;12.05;56.68;102276.44;108885;1254;71091;-81
2023/04/10 10:43:24;;;;;;;;;;;;;;;12.09;56.28;102272.75;109065;1254;124932;-78
2023/04/10 10:45:53;;;;;;;;;;;;;;;12.09;56.16;102270.11;108843;1254;60786;-78
2023/04/10 10:48:20;;;;;;;;;;;;;;;12.15;55.99;102269.30;108905;1254;75353;-78
2023/04/10 10:50:51;;;;;;;;;;;;;;;12.20;55.61;102273.59;108973;1254;126303;-78
2023/04/10 10:53:35;;;;;;;;;;;;;;;12.26;55.23;102269.95;109110;1253;72293;-79
2023/04/10 10:56:28;;;;;;;;;;;;;;;12.30;54.93;102269.22;108778;1254;124851;-80
2023/04/10 10:58:56;;;;;;;;;;;;;;;12.35;54.81;102265.57;108811;1258;60298;-81
2023/04/10 11:01:23;;;;;;;;;;;;;;;12.39;54.67;102260.45;108443;1262;125040;-81
2023/04/10 11:03:50;;;;;;;;;;;;;;;12.44;54.81;102257.50;107869;1254;65888;-78
2023/04/10 11:06:18;;;;;;;;;;;;;;;12.53;55.09;102257.70;108077;1254;71908;-79
2023/04/10 11:08:48;;;;;;;;;;;;;;;12.60;54.83;102253.75;107608;1255;124822;-79
2023/04/10 11:11:15;;;;;;;;;;;;;;;12.63;54.54;102253.88;107870;1253;59609;-78
2023/04/10 11:13:49;;;;;;;;;;;;;;;12.63;54.38;102249.49;107733;1254;124277;-78
2023/04/10 11:16:16;;;;;;;;;;;;;;;12.66;54.13;102248.52;108125;1254;67877;-78
2023/04/10 11:18:43;;;;;;;;;;;;;;;12.68;54.08;102244.22;107684;1254;124519;-79
2023/04/10 11:21:11;;;;;;;;;;;;;;;12.74;54.02;102240.57;107854;1254;59560;-81
2023/04/10 11:23:38;;;;;;;;;;;;;;;12.82;54.10;102237.39;107692;1256;61331;-81
2023/04/10 11:26:06;;;;;;;;;;;;;;;12.90;53.80;102237.34;107399;1254;125651;-81
2023/04/10 11:28:33;;;;;;;;;;;;;;;12.90;53.51;102233.28;107852;1253;67078;-79
2023/04/10 11:31:14;;;;;;;;;;;;;;;12.89;53.24;102233.77;107663;1254;124526;-80
2023/04/10 11:33:41;;;;;;;;;;;;;;;12.90;53.23;102232.22;107800;1254;61224;-80
2023/04/10 11:36:08;;;;;;;;;;;;;;;12.92;53.18;102227.89;107398;1254;61344;-80
2023/04/10 11:38:36;;;;;;;;;;;;;;;12.96;53.30;102229.10;107353;1254;124859;-80
2023/04/10 11:41:03;;;;;;;;;;;;;;;13.02;53.40;102224.76;107646;1254;67581;-80
2023/04/10 11:43:31;;;;;;;;;;;;;;;13.08;53.52;102219.87;107620;1253;124190;-80
2023/04/10 11:46:01;;;;;;;;;;;;;;;13.11;53.27;102219.98;108073;1253;60125;-80
2023/04/10 11:48:28;;;;;;;;;;;;;;;13.11;53.02;102218.43;108017;1257;60658;-80
2023/04/10 11:50:56;;;;;;;;;;;;;;;13.15;53.06;102214.66;108767;1254;126354;-81
2023/04/10 11:53:23;;;;;;;;;;;;;;;13.18;53.17;102207.23;108913;1254;65724;-81
2023/04/10 11:55:51;;;;;;;;;;;;;;;13.25;53.15;102206.41;109036;1254;126105;-80
2023/04/10 11:58:22;;;;;;;;;;;;;;;13.29;52.80;102205.31;109066;1254;59034;-80
2023/04/10 12:01:10;;;;;;;;;;;;;;;13.30;52.57;102206.27;108828;1254;124817;-81
2023/04/10 12:03:38;;;;;;;;;;;;;;;13.36;52.52;102200.35;108936;1260;74919;-82
2023/04/10 12:06:06;;;;;;;;;;;;;;;13.42;52.34;102188.73;109061;1254;66256;-79
2023/04/10 12:08:34;;;;;;;;;;;;;;;13.47;51.87;102189.77;108932;1254;124700;-80
2023/04/10 12:11:02;;;;;;;;;;;;;;;13.47;51.67;102186.28;108987;1255;59361;-80
2023/04/10 12:13:29;;;;;;;;;;;;;;;13.48;51.63;102183.85;108806;1254;124441;-79
2023/04/10 12:16:00;;;;;;;;;;;;;;;13.51;51.56;102181.99;109046;1253;74442;-79
2023/04/10 12:18:30;;;;;;;;;;;;;;;13.56;51.63;102180.59;109015;1254;67811;-80
2023/04/10 12:20:58;;;;;;;;;;;;;;;13.64;51.65;102183.68;109134;1254;124009;-78
2023/04/10 12:23:25;;;;;;;;;;;;;;;13.68;51.53;102183.14;109212;1257;59277;-79
2023/04/10 12:25:53;;;;;;;;;;;;;;;13.73;51.26;102177.65;108978;1254;124138;-78
2023/04/10 12:28:23;;;;;;;;;;;;;;;13.74;51.19;102173.13;109007;1254;74539;-79
2023/04/10 12:30:53;;;;;;;;;;;;;;;13.78;51.18;102167.97;108819;1254;124542;-79
2023/04/10 12:33:23;;;;;;;;;;;;;;;13.84;51.16;102164.46;109097;1254;72723;-80
2023/04/10 12:35:51;;;;;;;;;;;;;;;13.90;51.03;102164.66;109021;1254;59296;-79